createdAt,value
2023-01-09T00:01:48.902Z,19.30
2023-01-09T00:04:17.480Z,19.88
2023-01-09T00:06:50.547Z,17.77
2023-01-09T00:09:19.743Z,21.15
2023-01-09T00:11:48.303Z,20.45
2023-01-09T00:14:16.308Z,21.80
2023-01-09T00:16:44.755Z,20.02
2023-01-09T00:19:13.000Z,21.55
2023-01-09T00:21:40.643Z,17.85
2023-01-09T00:24:09.051Z,22.60
2023-01-09T00:26:38.513Z,18.57
2023-01-09T00:29:06.629Z,18.17
2023-01-09T00:31:34.689Z,17.27
2023-01-09T00:34:05.785Z,19.63
2023-01-09T00:36:33.982Z,20.30
2023-01-09T00:39:02.886Z,18.83
2023-01-09T00:41:34.076Z,17.75
2023-01-09T00:44:08.333Z,17.75
2023-01-09T00:46:40.712Z,20.40
2023-01-09T00:49:10.011Z,22.95
2023-01-09T00:51:39.366Z,21.77
2023-01-09T00:54:07.341Z,21.00
2023-01-09T00:56:38.169Z,17.45
2023-01-09T00:59:09.750Z,22.35
2023-01-09T01:01:37.739Z,17.63
2023-01-09T01:04:26.027Z,18.83
2023-01-09T01:07:13.437Z,20.58
2023-01-09T01:09:41.680Z,19.48
2023-01-09T01:12:09.796Z,20.70
2023-01-09T01:14:39.900Z,15.18
2023-01-09T01:17:08.898Z,18.13
2023-01-09T01:19:36.927Z,20.38
2023-01-09T01:22:04.908Z,18.10
2023-01-09T01:24:33.115Z,19.10
2023-01-09T01:27:01.714Z,17.67
2023-01-09T01:29:29.686Z,18.97
2023-01-09T01:32:00.208Z,17.65
2023-01-09T01:34:30.061Z,17.60
2023-01-09T01:36:58.216Z,17.77
2023-01-09T01:39:25.979Z,22.10
2023-01-09T01:41:53.803Z,26.20
2023-01-09T01:44:57.525Z,22.00
2023-01-09T01:47:33.589Z,18.70
2023-01-09T01:50:04.744Z,18.48
2023-01-09T01:52:36.055Z,17.42
2023-01-09T01:55:06.107Z,19.63
2023-01-09T01:57:34.563Z,17.00
2023-01-09T02:00:04.068Z,22.65
2023-01-09T02:02:34.843Z,20.00
2023-01-09T02:05:03.415Z,18.88
2023-01-09T02:07:31.792Z,20.40
2023-01-09T02:10:00.085Z,21.80
2023-01-09T02:12:29.466Z,19.30
2023-01-09T02:15:00.460Z,19.30
2023-01-09T02:17:44.696Z,21.95
2023-01-09T02:20:35.286Z,19.30
2023-01-09T02:23:43.660Z,17.42
2023-01-09T02:26:30.262Z,21.80
2023-01-09T02:29:27.239Z,18.90
2023-01-09T02:32:00.984Z,18.60
2023-01-09T02:34:38.407Z,17.27
2023-01-09T02:37:14.542Z,20.67
2023-01-09T02:39:49.598Z,19.58
2023-01-09T02:42:20.732Z,18.40
2023-01-09T02:44:48.990Z,19.98
2023-01-09T02:47:40.479Z,16.87
2023-01-09T02:50:13.647Z,17.13
2023-01-09T02:53:02.615Z,19.25
2023-01-09T02:55:42.180Z,20.55
2023-01-09T02:58:12.657Z,16.65
2023-01-09T03:00:54.128Z,16.77
2023-01-09T03:03:32.137Z,19.35
2023-01-09T03:06:12.459Z,17.02
2023-01-09T03:08:43.370Z,16.15
2023-01-09T03:11:12.058Z,20.77
2023-01-09T03:13:45.964Z,15.27
2023-01-09T03:16:17.016Z,15.25
2023-01-09T03:18:48.409Z,15.30
2023-01-09T03:21:17.349Z,14.55
2023-01-09T03:23:51.180Z,14.98
2023-01-09T03:26:19.997Z,13.63
2023-01-09T03:28:48.633Z,14.18
2023-01-09T03:34:06.762Z,13.18
2023-01-09T03:36:35.288Z,12.98
2023-01-09T03:39:03.651Z,13.20
2023-01-09T03:41:31.387Z,14.48
2023-01-09T03:43:59.637Z,14.18
2023-01-09T03:46:27.666Z,14.45
2023-01-09T03:48:55.731Z,12.98
2023-01-09T03:51:24.961Z,15.07
2023-01-09T03:53:53.214Z,13.02
2023-01-09T03:56:21.074Z,14.60
2023-01-09T03:58:50.144Z,13.43
2023-01-09T04:01:18.498Z,13.82
2023-01-09T04:03:46.483Z,13.10
2023-01-09T04:06:14.546Z,14.75
2023-01-09T04:08:44.025Z,12.98
2023-01-09T04:11:12.305Z,14.82
2023-01-09T04:13:41.253Z,13.70
2023-01-09T04:16:09.801Z,13.77
2023-01-09T04:18:38.184Z,14.27
2023-01-09T04:21:06.153Z,14.38
2023-01-09T04:23:33.818Z,13.30
2023-01-09T04:26:03.799Z,13.73
2023-01-09T04:28:31.681Z,15.33
2023-01-09T04:30:59.694Z,15.07
2023-01-09T04:33:28.024Z,14.95
2023-01-09T04:35:56.526Z,17.50
2023-01-09T04:38:24.534Z,13.52
2023-01-09T04:40:52.374Z,16.33
2023-01-09T04:43:21.633Z,16.80
2023-01-09T04:45:49.923Z,15.00
2023-01-09T04:48:17.766Z,14.25
2023-01-09T04:50:45.847Z,14.15
2023-01-09T04:53:13.761Z,15.27
2023-01-09T04:55:43.095Z,17.70
2023-01-09T04:58:10.928Z,15.23
2023-01-09T05:00:40.370Z,15.75
2023-01-09T05:03:08.168Z,16.98
2023-01-09T05:05:35.925Z,17.20
2023-01-09T05:08:04.028Z,15.82
2023-01-09T05:10:31.886Z,15.70
2023-01-09T05:12:59.697Z,17.77
2023-01-09T05:15:28.614Z,14.98
2023-01-09T05:17:58.078Z,16.57
2023-01-09T05:20:26.045Z,15.68
2023-01-09T05:22:53.813Z,14.93
2023-01-09T05:25:21.554Z,15.25
2023-01-09T05:27:49.155Z,16.00
2023-01-09T05:30:18.438Z,13.13
2023-01-09T05:32:46.490Z,14.05
2023-01-09T05:35:16.670Z,15.50
2023-01-09T05:37:44.361Z,13.57
2023-01-09T05:40:13.495Z,15.25
2023-01-09T05:42:41.574Z,17.30
2023-01-09T05:45:11.274Z,16.92
2023-01-09T05:47:39.654Z,17.88
2023-01-09T05:50:08.037Z,16.85
2023-01-09T05:52:36.938Z,18.52
2023-01-09T05:55:05.424Z,16.03
2023-01-09T05:57:33.110Z,14.05
2023-01-09T06:00:01.335Z,15.38
2023-01-09T06:02:29.282Z,20.42
2023-01-09T06:04:57.195Z,15.90
2023-01-09T06:07:24.972Z,17.30
2023-01-09T06:09:54.328Z,16.45
2023-01-09T06:12:22.157Z,17.38
2023-01-09T06:14:49.721Z,14.98
2023-01-09T06:17:17.614Z,15.73
2023-01-09T06:19:45.893Z,16.60
2023-01-09T06:22:13.707Z,14.07
2023-01-09T06:24:41.668Z,16.45
2023-01-09T06:27:12.983Z,16.70
2023-01-09T06:29:41.302Z,24.80
2023-01-09T06:32:09.230Z,22.07
2023-01-09T06:34:37.615Z,19.80
2023-01-09T06:37:05.764Z,15.93
2023-01-09T06:39:33.613Z,15.55
2023-01-09T06:42:01.585Z,17.15
2023-01-09T06:44:31.098Z,15.43
2023-01-09T06:46:58.950Z,14.77
2023-01-09T06:49:26.813Z,14.02
2023-01-09T06:51:55.045Z,12.57
2023-01-09T06:54:23.345Z,11.60
2023-01-09T06:56:51.219Z,9.17
2023-01-09T06:59:19.091Z,8.23
2023-01-09T07:01:48.667Z,7.85
2023-01-09T07:04:17.656Z,6.75
2023-01-09T07:06:48.420Z,7.03
2023-01-09T07:09:16.511Z,5.17
2023-01-09T07:11:44.134Z,3.50
2023-01-09T07:14:12.248Z,10.10
2023-01-09T07:16:40.211Z,4.97
2023-01-09T07:19:09.534Z,4.38
2023-01-09T07:21:37.513Z,2.83
2023-01-09T07:24:05.601Z,3.72
2023-01-09T07:26:33.444Z,3.67
2023-01-09T07:29:01.620Z,3.47
2023-01-09T07:31:29.687Z,1.98
2023-01-09T07:33:57.847Z,3.63
2023-01-09T07:36:27.203Z,2.03
2023-01-09T07:38:55.195Z,2.55
2023-01-09T07:41:23.178Z,2.05
2023-01-09T07:43:50.898Z,2.42
2023-01-09T07:46:18.812Z,1.40
2023-01-09T07:48:46.784Z,1.77
2023-01-09T07:51:14.680Z,3.25
2023-01-09T07:53:43.882Z,3.30
2023-01-09T07:56:12.203Z,1.80
2023-01-09T07:58:40.963Z,1.67
2023-01-09T08:01:08.788Z,2.20
2023-01-09T08:03:36.873Z,2.28
2023-01-09T08:06:04.500Z,9.15
2023-01-09T08:08:32.096Z,10.82
2023-01-09T08:11:01.173Z,5.87
2023-01-09T08:13:29.191Z,5.93
2023-01-09T08:15:56.802Z,7.05
2023-01-09T08:18:24.632Z,3.90
2023-01-09T08:20:54.764Z,3.78
2023-01-09T08:23:22.772Z,2.83
2023-01-09T08:25:50.649Z,2.88
2023-01-09T08:28:19.846Z,1.63
2023-01-09T08:30:48.309Z,0.60
2023-01-09T08:33:16.344Z,2.03
2023-01-09T08:35:44.890Z,2.67
2023-01-09T08:38:13.366Z,1.98
2023-01-09T08:40:41.217Z,3.50
2023-01-09T08:43:27.862Z,2.72
2023-01-09T08:46:14.616Z,1.88
2023-01-09T08:48:43.828Z,1.93
2023-01-09T08:51:12.158Z,3.60
2023-01-09T08:53:40.009Z,4.22
2023-01-09T08:56:08.198Z,4.90
2023-01-09T08:58:36.325Z,1.10
2023-01-09T09:01:08.595Z,6.23
2023-01-09T09:03:36.187Z,4.78
2023-01-09T09:06:04.195Z,2.92
2023-01-09T09:08:32.395Z,4.43
2023-01-09T09:11:01.191Z,2.97
2023-01-09T09:13:28.757Z,3.57
2023-01-09T09:15:56.748Z,3.63
2023-01-09T09:18:26.158Z,2.78
2023-01-09T09:20:54.089Z,1.88
2023-01-09T09:23:23.491Z,5.68
2023-01-09T09:25:51.462Z,2.13
2023-01-09T09:28:19.077Z,1.85
2023-01-09T09:30:47.100Z,3.88
2023-01-09T09:33:15.678Z,4.82
2023-01-09T09:35:44.848Z,5.55
2023-01-09T09:38:13.597Z,3.27
2023-01-09T09:40:57.918Z,7.82
2023-01-09T09:44:01.131Z,3.25
2023-01-09T09:46:41.376Z,6.47
2023-01-09T09:49:16.434Z,4.38
2023-01-09T09:51:55.887Z,4.03
2023-01-09T09:54:28.315Z,1.85
2023-01-09T09:57:00.775Z,3.53
2023-01-09T09:59:32.501Z,1.52
2023-01-09T10:02:04.087Z,2.58
2023-01-09T10:04:34.481Z,2.50
2023-01-09T10:07:09.634Z,1.70
2023-01-09T10:09:48.391Z,4.47
2023-01-09T10:12:28.723Z,2.67
2023-01-09T10:14:58.367Z,2.28
2023-01-09T10:17:39.065Z,2.03
2023-01-09T10:20:42.835Z,3.00
2023-01-09T10:23:39.865Z,5.47
2023-01-09T10:26:12.722Z,2.47
2023-01-09T10:28:57.388Z,2.10
2023-01-09T10:31:33.178Z,5.27
2023-01-09T10:34:15.689Z,3.75
2023-01-09T10:36:59.517Z,2.58
2023-01-09T10:39:34.151Z,2.70
2023-01-09T10:42:06.235Z,5.97
2023-01-09T10:44:38.812Z,7.33
2023-01-09T10:47:12.797Z,3.85
2023-01-09T10:49:41.476Z,3.28
2023-01-09T10:52:17.045Z,5.63
2023-01-09T10:54:52.763Z,4.57
2023-01-09T10:57:41.809Z,4.80
2023-01-09T11:00:16.946Z,3.38
2023-01-09T11:02:44.854Z,2.75
2023-01-09T11:05:16.812Z,4.90
2023-01-09T11:07:47.313Z,3.33
2023-01-09T11:10:18.402Z,2.90
2023-01-09T11:12:47.311Z,4.90
2023-01-09T11:15:40.489Z,2.67
2023-01-09T11:18:25.876Z,1.83
2023-01-09T11:20:54.153Z,2.95
2023-01-09T11:23:30.518Z,3.60
2023-01-09T11:26:01.025Z,4.68
2023-01-09T11:28:29.719Z,7.85
2023-01-09T11:31:01.429Z,4.50
2023-01-09T11:33:31.256Z,4.28
2023-01-09T11:36:04.198Z,4.67
2023-01-09T11:38:33.456Z,7.18
2023-01-09T11:41:06.688Z,2.97
2023-01-09T11:43:37.867Z,4.68
2023-01-09T11:46:07.444Z,3.05
2023-01-09T11:48:39.014Z,4.60
2023-01-09T11:51:18.086Z,3.08
2023-01-09T11:53:58.429Z,5.07
2023-01-09T11:56:27.940Z,2.42
2023-01-09T11:58:55.882Z,4.38
2023-01-09T12:01:46.699Z,6.23
2023-01-09T12:04:28.547Z,4.95
2023-01-09T12:07:24.680Z,2.88
2023-01-09T12:10:03.457Z,4.85
2023-01-09T12:12:41.530Z,6.57
2023-01-09T12:15:27.158Z,7.20
2023-01-09T12:18:11.969Z,3.45
2023-01-09T12:20:59.690Z,3.13
2023-01-09T12:23:42.212Z,6.85
2023-01-09T12:26:17.705Z,3.65
2023-01-09T12:29:08.482Z,5.13
2023-01-09T12:31:46.879Z,6.45
2023-01-09T12:34:30.622Z,3.88
2023-01-09T12:37:11.763Z,5.53
2023-01-09T12:39:48.833Z,8.60
2023-01-09T12:42:33.999Z,4.60
2023-01-09T12:45:13.959Z,4.38
2023-01-09T12:47:47.389Z,12.13
2023-01-09T12:50:29.181Z,9.23
2023-01-09T12:53:07.797Z,7.45
2023-01-09T12:55:39.990Z,4.80
2023-01-09T12:58:17.449Z,3.42
2023-01-09T13:00:50.476Z,5.18
2023-01-09T13:03:25.232Z,2.63
2023-01-09T13:05:57.338Z,5.93
2023-01-09T13:08:30.763Z,5.23
2023-01-09T13:11:18.841Z,2.08
2023-01-09T13:13:50.372Z,2.83
2023-01-09T13:16:24.905Z,4.32
2023-01-09T13:18:57.888Z,3.28
2023-01-09T13:21:26.829Z,2.50
2023-01-09T13:24:01.652Z,2.42
2023-01-09T13:26:32.342Z,3.97
2023-01-09T13:29:04.431Z,4.25
2023-01-09T13:31:46.307Z,3.70
2023-01-09T13:34:22.415Z,4.60
2023-01-09T13:36:53.061Z,3.33
2023-01-09T13:39:23.753Z,1.60
2023-01-09T13:42:12.806Z,3.38
2023-01-09T13:44:41.402Z,3.47
2023-01-09T13:47:18.763Z,2.90
2023-01-09T13:50:01.566Z,3.88
2023-01-09T13:52:32.396Z,4.22
2023-01-09T13:55:28.757Z,5.45
2023-01-09T13:58:19.048Z,7.18
2023-01-09T14:00:52.875Z,1.60
2023-01-09T14:03:27.636Z,5.70
2023-01-09T14:06:12.919Z,2.80
2023-01-09T14:08:43.108Z,3.13
2023-01-09T14:11:19.885Z,4.88
2023-01-09T14:13:53.549Z,2.77
2023-01-09T14:16:24.747Z,2.08
2023-01-09T14:18:58.965Z,6.68
2023-01-09T14:21:27.260Z,5.43
2023-01-09T14:24:04.451Z,2.05
2023-01-09T14:26:45.247Z,2.77
2023-01-09T14:29:39.249Z,5.07
2023-01-09T14:32:39.366Z,5.95
2023-01-09T14:35:16.691Z,4.53
2023-01-09T14:37:46.186Z,3.42
2023-01-09T14:40:22.807Z,2.67
2023-01-09T14:42:54.436Z,3.78
2023-01-09T14:45:24.686Z,2.90
2023-01-09T14:47:56.647Z,4.07
2023-01-09T14:50:33.403Z,5.00
2023-01-09T14:53:06.061Z,2.90
2023-01-09T14:55:41.283Z,7.65
2023-01-09T14:58:13.792Z,9.05
2023-01-09T15:00:49.809Z,11.82
2023-01-09T15:03:18.680Z,9.02
2023-01-09T15:05:49.032Z,4.77
2023-01-09T15:08:20.075Z,6.45
2023-01-09T15:10:49.821Z,4.85
2023-01-09T15:13:21.274Z,15.75
2023-01-09T15:15:50.729Z,14.68
2023-01-09T15:18:25.224Z,10.60
2023-01-09T15:20:59.166Z,17.33
2023-01-09T15:23:30.548Z,19.35
2023-01-09T15:25:59.042Z,19.45
2023-01-09T15:28:30.949Z,10.98
2023-01-09T15:31:05.661Z,5.80
2023-01-09T15:33:35.007Z,4.45
2023-01-09T15:36:09.317Z,3.33
2023-01-09T15:38:37.582Z,4.32
2023-01-09T15:41:09.140Z,2.83
2023-01-09T15:43:42.286Z,4.13
2023-01-09T15:46:12.142Z,4.63
2023-01-09T15:48:40.240Z,5.97
2023-01-09T15:51:13.478Z,9.18
2023-01-09T15:53:42.162Z,12.85
2023-01-09T15:56:19.621Z,20.77
2023-01-09T15:58:48.800Z,12.65
2023-01-09T16:01:26.976Z,17.63
2023-01-09T16:03:57.490Z,15.95
2023-01-09T16:06:29.833Z,11.10
2023-01-09T16:08:59.811Z,10.63
2023-01-09T16:11:30.268Z,11.27
2023-01-09T16:14:04.123Z,8.88
2023-01-09T16:16:35.131Z,7.03
2023-01-09T16:19:03.124Z,10.45
2023-01-09T16:21:34.995Z,9.43
2023-01-09T16:24:20.046Z,5.25
2023-01-09T16:26:48.067Z,5.20
2023-01-09T16:29:30.005Z,3.83
2023-01-09T16:32:01.764Z,3.72
2023-01-09T16:34:30.341Z,3.83
2023-01-09T16:37:03.017Z,11.25
2023-01-09T16:39:31.140Z,9.00
2023-01-09T16:42:16.381Z,6.60
2023-01-09T16:44:44.423Z,10.30
2023-01-09T16:47:13.001Z,5.57
2023-01-09T16:49:40.930Z,7.25
2023-01-09T16:52:17.339Z,6.88
2023-01-09T16:54:46.912Z,7.15
2023-01-09T16:57:18.599Z,9.05
2023-01-09T16:59:47.420Z,9.80
2023-01-09T17:02:19.561Z,5.47
2023-01-09T17:04:47.523Z,5.75
2023-01-09T17:07:18.463Z,3.13
2023-01-09T17:09:48.100Z,4.53
2023-01-09T17:12:20.108Z,4.37
2023-01-09T17:14:48.597Z,4.40
2023-01-09T17:17:16.860Z,5.07
2023-01-09T17:19:46.650Z,3.95
2023-01-09T17:22:16.759Z,4.88
2023-01-09T17:25:02.232Z,4.57
2023-01-09T17:27:51.923Z,4.60
2023-01-09T17:30:20.941Z,6.93
2023-01-09T17:32:49.257Z,4.93
2023-01-09T17:35:18.768Z,6.60
2023-01-09T17:37:48.547Z,10.07
2023-01-09T17:40:20.191Z,9.80
2023-01-09T17:42:48.560Z,10.70
2023-01-09T17:45:17.018Z,7.85
2023-01-09T17:47:44.956Z,7.90
2023-01-09T17:50:19.997Z,6.60
2023-01-09T17:52:51.003Z,8.40
2023-01-09T17:55:19.334Z,8.13
2023-01-09T17:57:47.383Z,7.60
2023-01-09T18:00:26.581Z,10.38
2023-01-09T18:02:54.913Z,8.10
2023-01-09T18:05:23.950Z,7.40
2023-01-09T18:07:53.170Z,6.65
2023-01-09T18:10:24.165Z,6.60
2023-01-09T18:12:54.007Z,4.25
2023-01-09T18:15:23.373Z,3.63
2023-01-09T18:17:51.484Z,3.05
2023-01-09T18:20:19.790Z,4.40
2023-01-09T18:22:49.350Z,3.40
2023-01-09T18:25:19.069Z,4.93
2023-01-09T18:27:47.041Z,4.17
2023-01-09T18:30:15.241Z,7.13
2023-01-09T18:32:43.111Z,5.90
2023-01-09T18:35:11.627Z,4.88
2023-01-09T18:37:39.422Z,4.88
2023-01-09T18:40:09.349Z,3.73
2023-01-09T18:42:40.525Z,3.75
2023-01-09T18:45:09.630Z,5.20
2023-01-09T18:47:37.571Z,6.65
2023-01-09T18:50:06.421Z,4.78
2023-01-09T18:52:34.372Z,7.20
2023-01-09T18:55:02.305Z,6.47
2023-01-09T18:57:30.062Z,5.20
2023-01-09T18:59:59.558Z,7.30
2023-01-09T19:02:28.099Z,6.05
2023-01-09T19:04:56.105Z,5.07
2023-01-09T19:07:24.455Z,5.40
2023-01-09T19:09:52.333Z,5.40
2023-01-09T19:12:20.396Z,6.95
2023-01-09T19:14:48.238Z,5.07
2023-01-09T19:17:17.420Z,5.20
2023-01-09T19:19:45.276Z,4.10
2023-01-09T19:22:15.077Z,5.07
2023-01-09T19:24:43.024Z,6.60
2023-01-09T19:27:10.996Z,5.75
2023-01-09T19:29:39.003Z,6.27
2023-01-09T19:32:08.683Z,6.97
2023-01-09T19:34:38.002Z,4.03
2023-01-09T19:37:08.281Z,5.72
2023-01-09T19:39:37.760Z,6.32
2023-01-09T19:42:06.414Z,6.17
2023-01-09T19:44:37.368Z,5.00
2023-01-09T19:47:05.171Z,6.82
2023-01-09T19:49:33.922Z,7.35
2023-01-09T19:52:03.538Z,3.67
2023-01-09T19:54:32.809Z,4.93
2023-01-09T19:57:00.561Z,3.95
2023-01-09T19:59:28.463Z,4.43
2023-01-09T20:01:56.449Z,4.95
2023-01-09T20:04:24.244Z,6.32
2023-01-09T20:06:53.289Z,6.97
2023-01-09T20:09:25.833Z,4.78
2023-01-09T20:11:53.472Z,4.15
2023-01-09T20:14:22.706Z,1.58
2023-01-09T20:16:53.945Z,2.47
2023-01-09T20:19:22.202Z,2.60
2023-01-09T20:21:50.606Z,3.35
2023-01-09T20:24:18.492Z,2.40
2023-01-09T20:26:47.821Z,2.15
2023-01-09T20:29:16.855Z,2.50
2023-01-09T20:31:45.212Z,2.07
2023-01-09T20:34:14.053Z,2.85
2023-01-09T20:36:42.081Z,3.63
2023-01-09T20:39:12.865Z,3.55
2023-01-09T20:41:41.150Z,2.70
2023-01-09T20:44:13.795Z,4.57
2023-01-09T20:46:43.469Z,3.33
2023-01-09T20:49:14.160Z,2.47
2023-01-09T20:51:46.991Z,1.73
2023-01-09T20:54:14.954Z,1.92
2023-01-09T20:56:43.037Z,2.07
2023-01-09T20:59:14.938Z,2.20
2023-01-09T21:01:42.600Z,3.42
2023-01-09T21:04:10.329Z,3.67
2023-01-09T21:06:39.046Z,2.30
2023-01-09T21:09:07.134Z,5.27
2023-01-09T21:11:35.366Z,4.63
2023-01-09T21:14:03.219Z,2.80
2023-01-09T21:16:32.502Z,2.30
2023-01-09T21:19:00.521Z,3.25
2023-01-09T21:21:29.019Z,3.23
2023-01-09T21:23:58.634Z,3.30
2023-01-09T21:26:29.228Z,3.25
2023-01-09T21:28:59.068Z,1.50
2023-01-09T21:31:33.660Z,2.63
2023-01-09T21:34:04.488Z,2.17
2023-01-09T21:36:32.404Z,2.63
2023-01-09T21:39:00.872Z,1.80
2023-01-09T21:41:46.608Z,2.30
2023-01-09T21:44:32.314Z,2.47
2023-01-09T21:47:00.866Z,2.37
2023-01-09T21:49:31.498Z,2.22
2023-01-09T21:51:59.933Z,2.80
2023-01-09T21:54:29.925Z,2.53
2023-01-09T21:56:58.365Z,2.20
2023-01-09T21:59:27.033Z,3.17
2023-01-09T22:01:55.008Z,1.60
2023-01-09T22:04:28.047Z,3.53
2023-01-09T22:06:57.645Z,2.67
2023-01-09T22:09:25.286Z,2.50
2023-01-09T22:11:53.331Z,2.33
2023-01-09T22:14:24.661Z,2.53
2023-01-09T22:16:55.935Z,2.63
2023-01-09T22:19:23.589Z,3.45
2023-01-09T22:21:51.737Z,2.65
2023-01-09T22:24:22.269Z,3.13
2023-01-09T22:26:50.099Z,2.60
2023-01-09T22:29:18.240Z,4.75
2023-01-09T22:31:46.588Z,5.07
2023-01-09T22:34:16.651Z,1.73
2023-01-09T22:36:46.136Z,1.60
2023-01-09T22:39:15.692Z,2.00
2023-01-09T22:41:45.646Z,2.22
2023-01-09T22:44:14.189Z,2.47
2023-01-09T22:46:42.129Z,2.28
2023-01-09T22:49:12.145Z,5.80
2023-01-09T22:51:40.331Z,3.80
2023-01-09T22:54:08.111Z,2.85
2023-01-09T22:56:36.534Z,2.80
2023-01-09T22:59:06.287Z,1.70
2023-01-09T23:01:34.248Z,1.93
2023-01-09T23:04:04.108Z,2.63
2023-01-09T23:06:32.035Z,2.70
2023-01-09T23:08:59.930Z,2.15
2023-01-09T23:11:47.766Z,2.05
2023-01-09T23:14:17.712Z,2.00
2023-01-09T23:16:45.621Z,1.85
2023-01-09T23:19:16.239Z,1.40
2023-01-09T23:21:45.152Z,1.70
2023-01-09T23:24:14.634Z,2.33
2023-01-09T23:26:45.671Z,1.70
2023-01-09T23:29:15.097Z,1.30
2023-01-09T23:31:46.577Z,1.98
2023-01-09T23:34:17.882Z,1.75
2023-01-09T23:37:11.771Z,1.60
2023-01-09T23:39:39.885Z,1.90
2023-01-09T23:42:25.458Z,2.88
2023-01-09T23:44:53.042Z,1.33
2023-01-09T23:47:22.108Z,1.90
2023-01-09T23:49:50.057Z,2.20
2023-01-09T23:52:18.658Z,2.63
2023-01-09T23:54:46.691Z,1.40
2023-01-09T23:57:14.872Z,1.23
2023-01-09T23:59:43.304Z,2.50
